Portada
METAR-TAF:

METAR-TAF

Aeroports :

Newnan-Coweta County Airport

Newnan, Geòrgia, Estats Units d'Amèrica

latitud: 33-18-44N, longitud: 084-46-13W, altitud: 296 m

Observació

L'informe es va fer fa 34 minuts, a les 06:55 UTC
Vent 3 kt del Nord-Est
Temperatura -2°C
Humitat 63%
Pressió 1028 hPa
Visibilitat: 16.1 km
Cel clar

METAR: KCCO 220655Z AUTO 05003KT 10SM CLR M02/M08 A3037 RMK AO2 T10191083

Hora: 02:29 (07:29 UTC)


TAF: manca

Observacions i pronòstics meteorològics de més de 4000 aeroports (METAR i TAF).

Les estacions disponibles són els punts grocs i vermells al mapa.

Posi el ratolí al punt desitjat per veure el nom de l'estació.

Feu clic per veure les observacions i els pronòstics meteorològics.

Per canviar el mapa: feu clic els botons verds amb una creu de color negre per apropar; al botó verd amb un guió per allunyar la imatge; o en les fletxes verdes per a mapes adjacents.


METAR-TAF: